sensor_id;sensor_type;location;lat;lon;timestamp;temperature;humidity
20231;DHT22;10274;49.022;9.338;2024-01-07T00:02:06;5.50;1.00
20231;DHT22;10274;49.022;9.338;2024-01-07T00:04:33;5.50;1.00
20231;DHT22;10274;49.022;9.338;2024-01-07T00:07:00;5.40;1.00
20231;DHT22;10274;49.022;9.338;2024-01-07T00:09:27;5.40;1.00
20231;DHT22;10274;49.022;9.338;2024-01-07T00:11:53;5.40;1.00
20231;DHT22;10274;49.022;9.338;2024-01-07T00:14:21;5.30;1.00
20231;DHT22;10274;49.022;9.338;2024-01-07T00:16:48;5.20;1.00
20231;DHT22;10274;49.022;9.338;2024-01-07T00:19:16;5.30;1.00
20231;DHT22;10274;49.022;9.338;2024-01-07T00:21:42;5.30;1.00
20231;DHT22;10274;49.022;9.338;2024-01-07T00:24:09;5.30;1.00
20231;DHT22;10274;49.022;9.338;2024-01-07T00:26:36;5.20;1.00
20231;DHT22;10274;49.022;9.338;2024-01-07T00:29:02;5.10;1.00
20231;DHT22;10274;49.022;9.338;2024-01-07T00:31:30;5.20;1.00
20231;DHT22;10274;49.022;9.338;2024-01-07T00:33:57;5.20;1.00
20231;DHT22;10274;49.022;9.338;2024-01-07T00:36:23;5.20;1.00
20231;DHT22;10274;49.022;9.338;2024-01-07T00:38:50;5.30;1.00
20231;DHT22;10274;49.022;9.338;2024-01-07T00:41:17;5.30;1.00
20231;DHT22;10274;49.022;9.338;2024-01-07T00:43:43;5.30;1.00
20231;DHT22;10274;49.022;9.338;2024-01-07T00:46:10;5.30;1.00
20231;DHT22;10274;49.022;9.338;2024-01-07T00:48:38;5.30;1.00
20231;DHT22;10274;49.022;9.338;2024-01-07T00:51:04;5.40;1.00
20231;DHT22;10274;49.022;9.338;2024-01-07T00:53:31;5.40;1.00
20231;DHT22;10274;49.022;9.338;2024-01-07T00:55:58;5.30;1.00
20231;DHT22;10274;49.022;9.338;2024-01-07T00:58:24;5.40;1.00
20231;DHT22;10274;49.022;9.338;2024-01-07T01:00:51;5.30;1.00
20231;DHT22;10274;49.022;9.338;2024-01-07T01:03:19;5.30;1.00
20231;DHT22;10274;49.022;9.338;2024-01-07T01:05:47;5.30;1.00
20231;DHT22;10274;49.022;9.338;2024-01-07T01:08:14;5.30;1.00
20231;DHT22;10274;49.022;9.338;2024-01-07T01:10:40;5.30;1.00
20231;DHT22;10274;49.022;9.338;2024-01-07T01:13:07;5.30;1.00
20231;DHT22;10274;49.022;9.338;2024-01-07T01:15:34;5.30;1.00
20231;DHT22;10274;49.022;9.338;2024-01-07T01:18:00;5.30;1.00
20231;DHT22;10274;49.022;9.338;2024-01-07T01:20:27;5.30;1.00
20231;DHT22;10274;49.022;9.338;2024-01-07T01:22:55;5.30;1.00
20231;DHT22;10274;49.022;9.338;2024-01-07T01:25:22;5.30;1.00
20231;DHT22;10274;49.022;9.338;2024-01-07T01:27:48;5.30;1.00
20231;DHT22;10274;49.022;9.338;2024-01-07T01:30:15;5.20;1.00
20231;DHT22;10274;49.022;9.338;2024-01-07T01:32:42;5.20;1.00
20231;DHT22;10274;49.022;9.338;2024-01-07T01:35:09;5.20;1.00
20231;DHT22;10274;49.022;9.338;2024-01-07T01:37:35;5.30;1.00
20231;DHT22;10274;49.022;9.338;2024-01-07T01:40:04;5.30;1.00
20231;DHT22;10274;49.022;9.338;2024-01-07T01:42:31;5.30;1.00
20231;DHT22;10274;49.022;9.338;2024-01-07T01:44:58;5.30;1.00
20231;DHT22;10274;49.022;9.338;2024-01-07T01:47:27;5.50;1.00
20231;DHT22;10274;49.022;9.338;2024-01-07T01:49:53;5.50;1.00
20231;DHT22;10274;49.022;9.338;2024-01-07T01:52:20;5.50;1.00
20231;DHT22;10274;49.022;9.338;2024-01-07T01:54:48;5.60;1.00
20231;DHT22;10274;49.022;9.338;2024-01-07T01:57:19;5.60;1.00
20231;DHT22;10274;49.022;9.338;2024-01-07T01:59:48;5.60;1.00
20231;DHT22;10274;49.022;9.338;2024-01-07T02:02:15;5.60;1.00
20231;DHT22;10274;49.022;9.338;2024-01-07T02:04:42;5.60;1.00
20231;DHT22;10274;49.022;9.338;2024-01-07T02:07:09;5.60;1.00
20231;DHT22;10274;49.022;9.338;2024-01-07T02:09:36;5.60;1.00
20231;DHT22;10274;49.022;9.338;2024-01-07T02:12:03;5.60;1.00
20231;DHT22;10274;49.022;9.338;2024-01-07T02:14:32;5.50;1.00
20231;DHT22;10274;49.022;9.338;2024-01-07T02:16:59;5.60;1.00
20231;DHT22;10274;49.022;9.338;2024-01-07T02:19:25;5.60;1.00
20231;DHT22;10274;49.022;9.338;2024-01-07T02:21:52;5.60;1.00
20231;DHT22;10274;49.022;9.338;2024-01-07T02:24:20;5.60;1.00
20231;DHT22;10274;49.022;9.338;2024-01-07T02:26:48;5.60;1.00
20231;DHT22;10274;49.022;9.338;2024-01-07T02:29:14;5.60;1.00
20231;DHT22;10274;49.022;9.338;2024-01-07T02:31:41;5.60;1.00
20231;DHT22;10274;49.022;9.338;2024-01-07T02:34:09;5.60;1.00
20231;DHT22;10274;49.022;9.338;2024-01-07T02:36:35;5.60;1.00
20231;DHT22;10274;49.022;9.338;2024-01-07T02:39:02;5.60;1.00
20231;DHT22;10274;49.022;9.338;2024-01-07T02:41:30;5.60;1.00
20231;DHT22;10274;49.022;9.338;2024-01-07T02:43:57;5.60;1.00
20231;DHT22;10274;49.022;9.338;2024-01-07T02:46:24;5.70;1.00
20231;DHT22;10274;49.022;9.338;2024-01-07T02:48:50;5.60;1.00
20231;DHT22;10274;49.022;9.338;2024-01-07T02:51:17;5.60;1.00
20231;DHT22;10274;49.022;9.338;2024-01-07T02:53:44;5.60;1.00
20231;DHT22;10274;49.022;9.338;2024-01-07T02:56:11;5.60;1.00
20231;DHT22;10274;49.022;9.338;2024-01-07T02:58:39;5.50;1.00
20231;DHT22;10274;49.022;9.338;2024-01-07T03:01:09;5.60;1.00
20231;DHT22;10274;49.022;9.338;2024-01-07T03:03:35;5.60;1.00
20231;DHT22;10274;49.022;9.338;2024-01-07T03:06:02;5.50;1.00
20231;DHT22;10274;49.022;9.338;2024-01-07T03:08:29;5.40;1.00
20231;DHT22;10274;49.022;9.338;2024-01-07T03:10:56;5.40;1.00
20231;DHT22;10274;49.022;9.338;2024-01-07T03:13:23;5.40;1.00
20231;DHT22;10274;49.022;9.338;2024-01-07T03:15:51;5.30;1.00
20231;DHT22;10274;49.022;9.338;2024-01-07T03:18:17;5.40;1.00
20231;DHT22;10274;49.022;9.338;2024-01-07T03:20:44;5.40;1.00
20231;DHT22;10274;49.022;9.338;2024-01-07T03:23:10;5.40;1.00
20231;DHT22;10274;49.022;9.338;2024-01-07T03:25:37;5.40;1.00
20231;DHT22;10274;49.022;9.338;2024-01-07T03:28:04;5.40;1.00
20231;DHT22;10274;49.022;9.338;2024-01-07T03:30:31;5.40;1.00
20231;DHT22;10274;49.022;9.338;2024-01-07T03:32:59;5.50;1.00
20231;DHT22;10274;49.022;9.338;2024-01-07T03:35:26;5.50;1.00
20231;DHT22;10274;49.022;9.338;2024-01-07T03:37:52;5.50;1.00
20231;DHT22;10274;49.022;9.338;2024-01-07T03:40:19;5.40;1.00
20231;DHT22;10274;49.022;9.338;2024-01-07T03:42:46;5.50;1.00
20231;DHT22;10274;49.022;9.338;2024-01-07T03:45:12;5.50;1.00
20231;DHT22;10274;49.022;9.338;2024-01-07T03:47:39;5.40;1.00
20231;DHT22;10274;49.022;9.338;2024-01-07T03:50:08;5.40;1.00
20231;DHT22;10274;49.022;9.338;2024-01-07T03:52:34;5.40;1.00
20231;DHT22;10274;49.022;9.338;2024-01-07T03:55:01;5.40;1.00
20231;DHT22;10274;49.022;9.338;2024-01-07T03:57:28;5.40;1.00
20231;DHT22;10274;49.022;9.338;2024-01-07T03:59:54;5.40;1.00
20231;DHT22;10274;49.022;9.338;2024-01-07T04:02:21;5.40;1.00
20231;DHT22;10274;49.022;9.338;2024-01-07T04:04:48;5.40;1.00
20231;DHT22;10274;49.022;9.338;2024-01-07T04:07:16;5.50;1.00
20231;DHT22;10274;49.022;9.338;2024-01-07T04:09:43;5.50;1.00
20231;DHT22;10274;49.022;9.338;2024-01-07T04:12:09;5.50;1.00
20231;DHT22;10274;49.022;9.338;2024-01-07T04:14:36;5.50;1.00
20231;DHT22;10274;49.022;9.338;2024-01-07T04:17:03;5.50;1.00
20231;DHT22;10274;49.022;9.338;2024-01-07T04:19:30;5.50;1.00
20231;DHT22;10274;49.022;9.338;2024-01-07T04:21:57;5.50;1.00
20231;DHT22;10274;49.022;9.338;2024-01-07T04:24:25;5.50;1.00
20231;DHT22;10274;49.022;9.338;2024-01-07T04:26:52;5.50;1.00
20231;DHT22;10274;49.022;9.338;2024-01-07T04:29:19;5.50;1.00
20231;DHT22;10274;49.022;9.338;2024-01-07T04:31:45;5.50;1.00
20231;DHT22;10274;49.022;9.338;2024-01-07T04:34:13;5.50;1.00
20231;DHT22;10274;49.022;9.338;2024-01-07T04:36:40;5.50;1.00
20231;DHT22;10274;49.022;9.338;2024-01-07T04:39:07;5.40;1.00
20231;DHT22;10274;49.022;9.338;2024-01-07T04:41:36;5.40;1.00
20231;DHT22;10274;49.022;9.338;2024-01-07T04:44:03;5.40;1.00
20231;DHT22;10274;49.022;9.338;2024-01-07T04:46:30;5.40;1.00
20231;DHT22;10274;49.022;9.338;2024-01-07T04:48:59;5.40;1.00
20231;DHT22;10274;49.022;9.338;2024-01-07T04:51:26;5.30;1.00
20231;DHT22;10274;49.022;9.338;2024-01-07T04:53:53;5.30;1.00
20231;DHT22;10274;49.022;9.338;2024-01-07T04:56:20;5.30;1.00
20231;DHT22;10274;49.022;9.338;2024-01-07T04:58:48;5.30;1.00
20231;DHT22;10274;49.022;9.338;2024-01-07T05:01:15;5.30;1.00
20231;DHT22;10274;49.022;9.338;2024-01-07T05:03:42;5.30;1.00
20231;DHT22;10274;49.022;9.338;2024-01-07T05:06:08;5.30;1.00
20231;DHT22;10274;49.022;9.338;2024-01-07T05:08:36;5.30;1.00
20231;DHT22;10274;49.022;9.338;2024-01-07T05:11:03;5.30;1.00
20231;DHT22;10274;49.022;9.338;2024-01-07T05:13:30;5.30;1.00
20231;DHT22;10274;49.022;9.338;2024-01-07T05:15:58;5.30;1.00
20231;DHT22;10274;49.022;9.338;2024-01-07T05:18:25;5.30;1.00
20231;DHT22;10274;49.022;9.338;2024-01-07T05:20:52;5.30;1.00
20231;DHT22;10274;49.022;9.338;2024-01-07T05:23:19;5.30;1.00
20231;DHT22;10274;49.022;9.338;2024-01-07T05:25:46;5.30;1.00
20231;DHT22;10274;49.022;9.338;2024-01-07T05:28:13;5.30;1.00
20231;DHT22;10274;49.022;9.338;2024-01-07T05:30:41;5.30;1.00
20231;DHT22;10274;49.022;9.338;2024-01-07T05:33:09;5.20;1.00
20231;DHT22;10274;49.022;9.338;2024-01-07T05:35:35;5.30;1.00
20231;DHT22;10274;49.022;9.338;2024-01-07T05:38:02;5.20;1.00
20231;DHT22;10274;49.022;9.338;2024-01-07T05:40:29;5.30;1.00
20231;DHT22;10274;49.022;9.338;2024-01-07T05:42:56;5.30;1.00
20231;DHT22;10274;49.022;9.338;2024-01-07T05:45:22;5.30;1.00
20231;DHT22;10274;49.022;9.338;2024-01-07T05:47:49;5.20;1.00
20231;DHT22;10274;49.022;9.338;2024-01-07T05:50:17;5.20;1.00
20231;DHT22;10274;49.022;9.338;2024-01-07T05:52:45;5.20;1.00
20231;DHT22;10274;49.022;9.338;2024-01-07T05:55:12;5.20;1.00
20231;DHT22;10274;49.022;9.338;2024-01-07T05:57:39;5.20;1.00
20231;DHT22;10274;49.022;9.338;2024-01-07T06:00:07;5.20;1.00
20231;DHT22;10274;49.022;9.338;2024-01-07T06:02:34;5.10;1.00
20231;DHT22;10274;49.022;9.338;2024-01-07T06:05:02;5.20;1.00
20231;DHT22;10274;49.022;9.338;2024-01-07T06:07:30;5.20;1.00
20231;DHT22;10274;49.022;9.338;2024-01-07T06:09:56;5.20;1.00
20231;DHT22;10274;49.022;9.338;2024-01-07T06:12:23;5.20;1.00
20231;DHT22;10274;49.022;9.338;2024-01-07T06:14:50;5.20;1.00
20231;DHT22;10274;49.022;9.338;2024-01-07T06:17:16;5.20;1.00
20231;DHT22;10274;49.022;9.338;2024-01-07T06:19:43;5.10;1.00
20231;DHT22;10274;49.022;9.338;2024-01-07T06:22:10;5.00;1.00
20231;DHT22;10274;49.022;9.338;2024-01-07T06:24:38;5.00;1.00
20231;DHT22;10274;49.022;9.338;2024-01-07T06:27:05;5.10;1.00
20231;DHT22;10274;49.022;9.338;2024-01-07T06:29:31;5.00;1.00
20231;DHT22;10274;49.022;9.338;2024-01-07T06:31:59;5.00;1.00
20231;DHT22;10274;49.022;9.338;2024-01-07T06:34:25;5.00;1.00
20231;DHT22;10274;49.022;9.338;2024-01-07T06:36:52;5.00;1.00
20231;DHT22;10274;49.022;9.338;2024-01-07T06:39:19;4.90;1.00
20231;DHT22;10274;49.022;9.338;2024-01-07T06:41:47;4.90;1.00
20231;DHT22;10274;49.022;9.338;2024-01-07T06:44:13;4.90;1.00
20231;DHT22;10274;49.022;9.338;2024-01-07T06:46:40;4.90;1.00
20231;DHT22;10274;49.022;9.338;2024-01-07T06:49:07;4.80;1.00
20231;DHT22;10274;49.022;9.338;2024-01-07T06:51:34;4.80;1.00
20231;DHT22;10274;49.022;9.338;2024-01-07T06:54:00;4.70;1.00
20231;DHT22;10274;49.022;9.338;2024-01-07T06:56:27;4.70;1.00
20231;DHT22;10274;49.022;9.338;2024-01-07T06:58:55;4.80;1.00
20231;DHT22;10274;49.022;9.338;2024-01-07T07:01:22;4.70;1.00
20231;DHT22;10274;49.022;9.338;2024-01-07T07:03:49;4.70;1.00
20231;DHT22;10274;49.022;9.338;2024-01-07T07:06:16;4.70;1.00
20231;DHT22;10274;49.022;9.338;2024-01-07T07:08:43;4.70;1.00
20231;DHT22;10274;49.022;9.338;2024-01-07T07:11:09;4.70;1.00
20231;DHT22;10274;49.022;9.338;2024-01-07T07:13:36;4.70;1.00
20231;DHT22;10274;49.022;9.338;2024-01-07T07:16:05;4.70;1.00
20231;DHT22;10274;49.022;9.338;2024-01-07T07:18:32;4.70;1.00
20231;DHT22;10274;49.022;9.338;2024-01-07T07:21:00;4.70;1.00
20231;DHT22;10274;49.022;9.338;2024-01-07T07:23:26;4.70;1.00
20231;DHT22;10274;49.022;9.338;2024-01-07T07:25:53;4.70;1.00
20231;DHT22;10274;49.022;9.338;2024-01-07T07:28:20;4.70;1.00
20231;DHT22;10274;49.022;9.338;2024-01-07T07:30:46;4.60;1.00
20231;DHT22;10274;49.022;9.338;2024-01-07T07:33:14;4.60;1.00
20231;DHT22;10274;49.022;9.338;2024-01-07T07:35:41;4.60;1.00
20231;DHT22;10274;49.022;9.338;2024-01-07T07:38:08;4.60;1.00
20231;DHT22;10274;49.022;9.338;2024-01-07T07:40:34;4.60;1.00
20231;DHT22;10274;49.022;9.338;2024-01-07T07:43:01;4.60;1.00
20231;DHT22;10274;49.022;9.338;2024-01-07T07:45:28;4.60;1.00
20231;DHT22;10274;49.022;9.338;2024-01-07T07:47:55;4.60;1.00
20231;DHT22;10274;49.022;9.338;2024-01-07T07:50:23;4.60;1.00
20231;DHT22;10274;49.022;9.338;2024-01-07T07:52:50;4.50;1.00
20231;DHT22;10274;49.022;9.338;2024-01-07T07:55:17;4.60;1.00
20231;DHT22;10274;49.022;9.338;2024-01-07T07:57:43;4.60;1.00
20231;DHT22;10274;49.022;9.338;2024-01-07T08:00:12;4.60;1.00
20231;DHT22;10274;49.022;9.338;2024-01-07T08:02:39;4.60;1.00
20231;DHT22;10274;49.022;9.338;2024-01-07T08:05:06;4.60;1.00
20231;DHT22;10274;49.022;9.338;2024-01-07T08:07:34;4.50;1.00
20231;DHT22;10274;49.022;9.338;2024-01-07T08:10:01;4.60;1.00
20231;DHT22;10274;49.022;9.338;2024-01-07T08:12:28;4.60;1.00
20231;DHT22;10274;49.022;9.338;2024-01-07T08:14:55;4.50;1.00
20231;DHT22;10274;49.022;9.338;2024-01-07T08:17:21;4.60;1.00
20231;DHT22;10274;49.022;9.338;2024-01-07T08:19:48;4.60;1.00
20231;DHT22;10274;49.022;9.338;2024-01-07T08:22:15;4.60;1.00
20231;DHT22;10274;49.022;9.338;2024-01-07T08:24:43;4.70;1.00
20231;DHT22;10274;49.022;9.338;2024-01-07T08:27:09;4.60;1.00
20231;DHT22;10274;49.022;9.338;2024-01-07T08:29:36;4.70;1.00
20231;DHT22;10274;49.022;9.338;2024-01-07T08:32:03;4.60;1.00
20231;DHT22;10274;49.022;9.338;2024-01-07T08:34:30;4.60;1.00
20231;DHT22;10274;49.022;9.338;2024-01-07T08:36:56;4.60;1.00
20231;DHT22;10274;49.022;9.338;2024-01-07T08:39:23;4.70;1.00
20231;DHT22;10274;49.022;9.338;2024-01-07T08:41:53;4.60;1.00
20231;DHT22;10274;49.022;9.338;2024-01-07T08:44:19;4.60;1.00
20231;DHT22;10274;49.022;9.338;2024-01-07T08:46:46;4.60;1.00
20231;DHT22;10274;49.022;9.338;2024-01-07T08:49:13;4.50;1.00
20231;DHT22;10274;49.022;9.338;2024-01-07T08:51:40;4.50;1.00
20231;DHT22;10274;49.022;9.338;2024-01-07T08:54:06;4.50;1.00
20231;DHT22;10274;49.022;9.338;2024-01-07T08:56:33;4.50;1.00
20231;DHT22;10274;49.022;9.338;2024-01-07T08:59:01;4.90;1.00
20231;DHT22;10274;49.022;9.338;2024-01-07T09:01:29;5.00;1.00
20231;DHT22;10274;49.022;9.338;2024-01-07T09:03:56;4.80;1.00
20231;DHT22;10274;49.022;9.338;2024-01-07T09:06:23;4.70;1.00
20231;DHT22;10274;49.022;9.338;2024-01-07T09:08:49;4.60;1.00
20231;DHT22;10274;49.022;9.338;2024-01-07T09:11:19;4.50;1.00
20231;DHT22;10274;49.022;9.338;2024-01-07T09:13:46;4.40;1.00
20231;DHT22;10274;49.022;9.338;2024-01-07T09:16:15;4.40;1.00
20231;DHT22;10274;49.022;9.338;2024-01-07T09:18:42;4.40;1.00
20231;DHT22;10274;49.022;9.338;2024-01-07T09:21:10;4.30;1.00
20231;DHT22;10274;49.022;9.338;2024-01-07T09:23:36;4.40;1.00
20231;DHT22;10274;49.022;9.338;2024-01-07T09:26:03;4.30;1.00
20231;DHT22;10274;49.022;9.338;2024-01-07T09:28:30;4.40;1.00
20231;DHT22;10274;49.022;9.338;2024-01-07T09:30:57;4.50;1.00
20231;DHT22;10274;49.022;9.338;2024-01-07T09:33:25;4.40;1.00
20231;DHT22;10274;49.022;9.338;2024-01-07T09:35:51;4.50;1.00
20231;DHT22;10274;49.022;9.338;2024-01-07T09:38:19;4.60;1.00
20231;DHT22;10274;49.022;9.338;2024-01-07T09:40:46;4.50;1.00
20231;DHT22;10274;49.022;9.338;2024-01-07T09:43:13;4.30;1.00
20231;DHT22;10274;49.022;9.338;2024-01-07T09:45:41;4.30;1.00
20231;DHT22;10274;49.022;9.338;2024-01-07T09:48:08;4.30;1.00
20231;DHT22;10274;49.022;9.338;2024-01-07T09:50:36;4.40;1.00
20231;DHT22;10274;49.022;9.338;2024-01-07T09:53:03;4.40;1.00
20231;DHT22;10274;49.022;9.338;2024-01-07T09:55:33;4.50;1.00
20231;DHT22;10274;49.022;9.338;2024-01-07T09:58:00;4.50;1.00
20231;DHT22;10274;49.022;9.338;2024-01-07T10:00:27;4.50;1.00
20231;DHT22;10274;49.022;9.338;2024-01-07T10:02:55;4.50;1.00
20231;DHT22;10274;49.022;9.338;2024-01-07T10:05:21;4.60;1.00
20231;DHT22;10274;49.022;9.338;2024-01-07T10:07:49;4.70;1.00
20231;DHT22;10274;49.022;9.338;2024-01-07T10:10:19;4.70;1.00
20231;DHT22;10274;49.022;9.338;2024-01-07T10:12:47;4.70;1.00
20231;DHT22;10274;49.022;9.338;2024-01-07T10:15:14;4.60;1.00
20231;DHT22;10274;49.022;9.338;2024-01-07T10:17:41;4.60;1.00
20231;DHT22;10274;49.022;9.338;2024-01-07T10:20:09;4.50;1.00
20231;DHT22;10274;49.022;9.338;2024-01-07T10:22:36;4.50;1.00
20231;DHT22;10274;49.022;9.338;2024-01-07T10:25:05;4.60;1.00
20231;DHT22;10274;49.022;9.338;2024-01-07T10:27:35;4.50;1.00
20231;DHT22;10274;49.022;9.338;2024-01-07T10:30:02;4.50;1.00
20231;DHT22;10274;49.022;9.338;2024-01-07T10:32:29;4.40;1.00
20231;DHT22;10274;49.022;9.338;2024-01-07T10:35:01;4.50;1.00
20231;DHT22;10274;49.022;9.338;2024-01-07T10:37:28;4.30;1.00
20231;DHT22;10274;49.022;9.338;2024-01-07T10:39:57;4.30;1.00
20231;DHT22;10274;49.022;9.338;2024-01-07T10:42:30;4.30;1.00
20231;DHT22;10274;49.022;9.338;2024-01-07T10:44:57;4.30;1.00
20231;DHT22;10274;49.022;9.338;2024-01-07T10:47:27;4.30;1.00
20231;DHT22;10274;49.022;9.338;2024-01-07T10:49:57;4.40;1.00
20231;DHT22;10274;49.022;9.338;2024-01-07T10:52:24;4.50;1.00
20231;DHT22;10274;49.022;9.338;2024-01-07T10:54:53;4.50;1.00
20231;DHT22;10274;49.022;9.338;2024-01-07T10:57:27;4.40;1.00
20231;DHT22;10274;49.022;9.338;2024-01-07T11:00:00;4.30;1.00
20231;DHT22;10274;49.022;9.338;2024-01-07T11:02:32;4.30;1.00
20231;DHT22;10274;49.022;9.338;2024-01-07T11:05:07;4.50;1.00
20231;DHT22;10274;49.022;9.338;2024-01-07T11:07:41;4.30;1.00
20231;DHT22;10274;49.022;9.338;2024-01-07T11:10:11;4.20;1.00
20231;DHT22;10274;49.022;9.338;2024-01-07T11:12:40;4.30;1.00
20231;DHT22;10274;49.022;9.338;2024-01-07T11:15:08;4.30;1.00
20231;DHT22;10274;49.022;9.338;2024-01-07T11:17:41;4.30;1.00
20231;DHT22;10274;49.022;9.338;2024-01-07T11:20:21;4.30;1.00
20231;DHT22;10274;49.022;9.338;2024-01-07T11:22:52;4.20;1.00
20231;DHT22;10274;49.022;9.338;2024-01-07T11:25:28;4.10;1.00
20231;DHT22;10274;49.022;9.338;2024-01-07T11:27:56;4.10;1.00
20231;DHT22;10274;49.022;9.338;2024-01-07T11:30:25;4.00;1.00
20231;DHT22;10274;49.022;9.338;2024-01-07T11:32:56;4.00;1.00
20231;DHT22;10274;49.022;9.338;2024-01-07T11:35:53;4.10;1.00
20231;DHT22;10274;49.022;9.338;2024-01-07T11:38:20;3.90;1.00
20231;DHT22;10274;49.022;9.338;2024-01-07T11:40:49;3.90;1.00
20231;DHT22;10274;49.022;9.338;2024-01-07T11:43:17;3.80;1.00
20231;DHT22;10274;49.022;9.338;2024-01-07T11:45:45;3.80;1.00
20231;DHT22;10274;49.022;9.338;2024-01-07T11:48:12;3.80;1.00
20231;DHT22;10274;49.022;9.338;2024-01-07T11:50:39;3.80;1.00
20231;DHT22;10274;49.022;9.338;2024-01-07T11:53:06;3.80;1.00
20231;DHT22;10274;49.022;9.338;2024-01-07T11:55:33;3.70;1.00
20231;DHT22;10274;49.022;9.338;2024-01-07T11:58:01;3.80;1.00
20231;DHT22;10274;49.022;9.338;2024-01-07T12:00:31;3.80;1.00
20231;DHT22;10274;49.022;9.338;2024-01-07T12:02:59;3.90;1.00
20231;DHT22;10274;49.022;9.338;2024-01-07T12:05:26;3.60;1.00
20231;DHT22;10274;49.022;9.338;2024-01-07T12:07:53;3.70;1.00
20231;DHT22;10274;49.022;9.338;2024-01-07T12:10:20;3.60;1.00
20231;DHT22;10274;49.022;9.338;2024-01-07T12:12:47;3.60;1.00
20231;DHT22;10274;49.022;9.338;2024-01-07T12:15:14;3.50;1.00
20231;DHT22;10274;49.022;9.338;2024-01-07T12:17:41;3.60;1.00
20231;DHT22;10274;49.022;9.338;2024-01-07T12:20:10;3.50;1.00
20231;DHT22;10274;49.022;9.338;2024-01-07T12:22:38;3.50;1.00
20231;DHT22;10274;49.022;9.338;2024-01-07T12:25:06;3.40;1.00
20231;DHT22;10274;49.022;9.338;2024-01-07T12:27:33;3.40;1.00
20231;DHT22;10274;49.022;9.338;2024-01-07T12:30:01;3.40;1.00
20231;DHT22;10274;49.022;9.338;2024-01-07T12:32:28;3.30;1.00
20231;DHT22;10274;49.022;9.338;2024-01-07T12:34:57;3.20;1.00
20231;DHT22;10274;49.022;9.338;2024-01-07T12:37:27;3.20;1.00
20231;DHT22;10274;49.022;9.338;2024-01-07T12:39:54;3.20;1.00
20231;DHT22;10274;49.022;9.338;2024-01-07T12:42:21;3.10;1.00
20231;DHT22;10274;49.022;9.338;2024-01-07T12:44:48;3.20;1.00
20231;DHT22;10274;49.022;9.338;2024-01-07T12:47:16;3.10;1.00
20231;DHT22;10274;49.022;9.338;2024-01-07T12:49:42;3.10;1.00
20231;DHT22;10274;49.022;9.338;2024-01-07T12:52:09;3.10;1.00
20231;DHT22;10274;49.022;9.338;2024-01-07T12:54:38;3.00;1.00
20231;DHT22;10274;49.022;9.338;2024-01-07T12:57:05;3.00;1.00
20231;DHT22;10274;49.022;9.338;2024-01-07T12:59:31;3.00;1.00
20231;DHT22;10274;49.022;9.338;2024-01-07T13:01:58;3.00;1.00
20231;DHT22;10274;49.022;9.338;2024-01-07T13:04:25;3.00;1.00
20231;DHT22;10274;49.022;9.338;2024-01-07T13:06:52;3.00;1.00
20231;DHT22;10274;49.022;9.338;2024-01-07T13:09:18;3.00;1.00
20231;DHT22;10274;49.022;9.338;2024-01-07T13:11:46;3.00;1.00
20231;DHT22;10274;49.022;9.338;2024-01-07T13:14:13;3.00;1.00
20231;DHT22;10274;49.022;9.338;2024-01-07T13:16:40;2.90;1.00
20231;DHT22;10274;49.022;9.338;2024-01-07T13:19:07;2.90;1.00
20231;DHT22;10274;49.022;9.338;2024-01-07T13:21:36;2.90;1.00
20231;DHT22;10274;49.022;9.338;2024-01-07T13:24:04;2.90;1.00
20231;DHT22;10274;49.022;9.338;2024-01-07T13:26:31;2.80;1.00
20231;DHT22;10274;49.022;9.338;2024-01-07T13:28:59;2.80;1.00
20231;DHT22;10274;49.022;9.338;2024-01-07T13:31:25;2.70;1.00
20231;DHT22;10274;49.022;9.338;2024-01-07T13:33:52;2.70;1.00
20231;DHT22;10274;49.022;9.338;2024-01-07T13:36:19;2.80;1.00
20231;DHT22;10274;49.022;9.338;2024-01-07T13:38:45;2.80;1.00
20231;DHT22;10274;49.022;9.338;2024-01-07T13:41:15;2.70;1.00
20231;DHT22;10274;49.022;9.338;2024-01-07T13:43:42;2.80;1.00
20231;DHT22;10274;49.022;9.338;2024-01-07T13:46:10;2.70;1.00
20231;DHT22;10274;49.022;9.338;2024-01-07T13:48:37;2.70;1.00
20231;DHT22;10274;49.022;9.338;2024-01-07T13:51:06;2.60;1.00
20231;DHT22;10274;49.022;9.338;2024-01-07T13:53:33;2.70;1.00
20231;DHT22;10274;49.022;9.338;2024-01-07T13:56:00;2.60;1.00
20231;DHT22;10274;49.022;9.338;2024-01-07T13:58:27;2.60;1.00
20231;DHT22;10274;49.022;9.338;2024-01-07T14:00:53;2.50;1.00
20231;DHT22;10274;49.022;9.338;2024-01-07T14:03:21;2.60;1.00
20231;DHT22;10274;49.022;9.338;2024-01-07T14:05:48;2.60;1.00
20231;DHT22;10274;49.022;9.338;2024-01-07T14:08:16;2.50;1.00
20231;DHT22;10274;49.022;9.338;2024-01-07T14:10:43;2.50;1.00
20231;DHT22;10274;49.022;9.338;2024-01-07T14:13:10;2.50;1.00
20231;DHT22;10274;49.022;9.338;2024-01-07T14:15:36;2.50;1.00
20231;DHT22;10274;49.022;9.338;2024-01-07T14:18:04;2.40;1.00
20231;DHT22;10274;49.022;9.338;2024-01-07T14:20:32;2.40;1.00
20231;DHT22;10274;49.022;9.338;2024-01-07T14:22:58;2.40;1.00
20231;DHT22;10274;49.022;9.338;2024-01-07T14:25:25;2.40;1.00
20231;DHT22;10274;49.022;9.338;2024-01-07T14:27:52;2.50;1.00
20231;DHT22;10274;49.022;9.338;2024-01-07T14:30:18;2.40;1.00
20231;DHT22;10274;49.022;9.338;2024-01-07T14:32:45;2.30;1.00
20231;DHT22;10274;49.022;9.338;2024-01-07T14:35:12;2.40;1.00
20231;DHT22;10274;49.022;9.338;2024-01-07T14:37:40;2.40;1.00
20231;DHT22;10274;49.022;9.338;2024-01-07T14:40:08;2.30;1.00
20231;DHT22;10274;49.022;9.338;2024-01-07T14:42:34;2.20;1.00
20231;DHT22;10274;49.022;9.338;2024-01-07T14:45:01;2.30;1.00
20231;DHT22;10274;49.022;9.338;2024-01-07T14:47:29;2.20;1.00
20231;DHT22;10274;49.022;9.338;2024-01-07T14:49:56;2.30;1.00
20231;DHT22;10274;49.022;9.338;2024-01-07T14:52:23;2.30;1.00
20231;DHT22;10274;49.022;9.338;2024-01-07T14:54:51;2.40;1.00
20231;DHT22;10274;49.022;9.338;2024-01-07T14:57:18;2.30;1.00
20231;DHT22;10274;49.022;9.338;2024-01-07T14:59:45;2.20;1.00
20231;DHT22;10274;49.022;9.338;2024-01-07T15:02:12;2.20;1.00
20231;DHT22;10274;49.022;9.338;2024-01-07T15:04:38;2.20;1.00
20231;DHT22;10274;49.022;9.338;2024-01-07T15:07:05;2.20;1.00
20231;DHT22;10274;49.022;9.338;2024-01-07T15:09:32;2.20;1.00
20231;DHT22;10274;49.022;9.338;2024-01-07T15:12:00;2.10;1.00
20231;DHT22;10274;49.022;9.338;2024-01-07T15:14:26;2.10;1.00
20231;DHT22;10274;49.022;9.338;2024-01-07T15:16:53;2.10;1.00
20231;DHT22;10274;49.022;9.338;2024-01-07T15:19:20;2.10;1.00
20231;DHT22;10274;49.022;9.338;2024-01-07T15:21:47;2.10;1.00
20231;DHT22;10274;49.022;9.338;2024-01-07T15:24:14;2.10;1.00
20231;DHT22;10274;49.022;9.338;2024-01-07T15:26:40;2.10;1.00
20231;DHT22;10274;49.022;9.338;2024-01-07T15:29:08;2.10;1.00
20231;DHT22;10274;49.022;9.338;2024-01-07T15:31:35;2.10;1.00
20231;DHT22;10274;49.022;9.338;2024-01-07T15:34:02;2.10;1.00
20231;DHT22;10274;49.022;9.338;2024-01-07T15:36:28;2.10;1.00
20231;DHT22;10274;49.022;9.338;2024-01-07T15:38:55;2.10;1.00
20231;DHT22;10274;49.022;9.338;2024-01-07T15:41:22;2.00;1.00
20231;DHT22;10274;49.022;9.338;2024-01-07T15:43:48;2.00;1.00
20231;DHT22;10274;49.022;9.338;2024-01-07T15:46:16;2.00;1.00
20231;DHT22;10274;49.022;9.338;2024-01-07T15:48:43;2.00;1.00
20231;DHT22;10274;49.022;9.338;2024-01-07T15:51:10;2.00;1.00
20231;DHT22;10274;49.022;9.338;2024-01-07T15:53:36;1.90;1.00
20231;DHT22;10274;49.022;9.338;2024-01-07T15:56:04;1.90;1.00
20231;DHT22;10274;49.022;9.338;2024-01-07T15:58:32;1.90;1.00
20231;DHT22;10274;49.022;9.338;2024-01-07T16:01:00;1.90;1.00
20231;DHT22;10274;49.022;9.338;2024-01-07T16:03:30;1.90;1.00